»·PEaware :: HAWG11 KLSV-KLSV

HAWG11 :: KLSV-KLSV

FLIGHT INFORMATION

Flight Status: Arrived
Operator: Unknown
More flights by this operator :: More flights under this callsign
Pilot: Logan D. (20254)
Aircraft: FAIRCHILD A-10 THUNDERBOLT 2
(A10)
More flights by this aircraft type
Origin: KLSV Nellis AFB
United States
Destination: KLSV Nellis AFB
United States
More flights between these airports :: More routes between these airports
Route: LSV FYTTR5 FYTTR INS/D0+30 INS LSV
File this flight plan on PilotEdge
Remarks: +CW /
Altitude:
(Current/Filed)
15,000ft
Speed:
(Current/Filed)
250kts
Departed: 19-Mar-19 06:47 PM
Arrived: 19-Mar-19 08:00 PM
Distance/Time
Traveled:
1nm/1:13
Distance/Time
To Go:
Arrived

Flight Plot

Page will automatically refresh every two minutes.

Flight plan parsing failed; only flown route is shown


Map Options




Map Legend


Flown Route
Filed Route
Departure Airport
Arrival Airport
Navaid (VOR, NDB)
Fix

Horizontal Profiles

Position Reports

Time Latitude Longitude Heading Altitude Ground
Speed
19-Mar-19 18:31 36.222386 -115.039688 311 1848ft 0kts
19-Mar-19 18:31 36.222386 -115.039688 311 1848ft 0kts
19-Mar-19 18:32 36.222386 -115.039688 311 1848ft 0kts
19-Mar-19 18:34 36.222386 -115.039688 311 1848ft 0kts
19-Mar-19 18:34 36.222386 -115.039688 311 1848ft 0kts
19-Mar-19 18:35 36.222386 -115.039688 311 1848ft 0kts
19-Mar-19 18:36 36.222386 -115.039688 311 1848ft 0kts
19-Mar-19 18:37 36.222386 -115.039688 311 1848ft 0kts
19-Mar-19 18:38 36.222386 -115.039688 311 1848ft 0kts
19-Mar-19 18:39 36.222386 -115.039688 311 1848ft 0kts
19-Mar-19 18:40 36.222386 -115.039688 311 1848ft 0kts
19-Mar-19 18:41 36.222386 -115.039688 311 1848ft 0kts
19-Mar-19 18:42 36.222694 -115.040120 310 1848ft 6kts
19-Mar-19 18:43 36.223710 -115.042393 308 1848ft 6kts
19-Mar-19 18:44 36.224329 -115.043240 323 1848ft 1kts
19-Mar-19 18:45 36.224458 -115.043345 325 1848ft 7kts
19-Mar-19 18:46 36.228527 -115.040245 39 1850ft 93kts
19-Mar-19 18:47 36.261372 -115.003209 41 2893ft 185kts
19-Mar-19 18:48 36.303376 -114.954237 42 4815ft 219kts
19-Mar-19 18:49 36.352864 -114.924701 321 7294ft 209kts
19-Mar-19 18:50 36.352959 -114.992406 230 9235ft 222kts
19-Mar-19 18:51 36.309421 -115.050355 222 11175ft 231kts
19-Mar-19 18:52 36.263329 -115.113710 264 12145ft 271kts
19-Mar-19 18:53 36.278226 -115.205401 281 13525ft 268kts
19-Mar-19 18:54 36.295252 -115.295876 282 14995ft 264kts
19-Mar-19 18:55 36.312566 -115.384801 283 16442ft 262kts
19-Mar-19 18:56 36.330468 -115.484762 280 15639ft 318kts
19-Mar-19 18:57 36.347414 -115.592736 280 15623ft 318kts
19-Mar-19 18:58 36.364682 -115.699471 291 15677ft 307kts
19-Mar-19 18:59 36.439586 -115.718369 7 15483ft 288kts
19-Mar-19 19:00 36.516887 -115.698927 20 15256ft 289kts
19-Mar-19 19:01 36.598742 -115.682774 7 15634ft 302kts
19-Mar-19 19:02 36.684411 -115.668251 7 15638ft 314kts
19-Mar-19 19:03 36.771954 -115.653394 7 15636ft 317kts
19-Mar-19 19:04 36.860033 -115.638404 7 15636ft 318kts
19-Mar-19 19:05 36.941027 -115.652968 298 15630ft 314kts
19-Mar-19 19:06 36.906365 -115.731811 177 15630ft 313kts
19-Mar-19 19:07 36.870946 -115.653663 65 15589ft 315kts
19-Mar-19 19:08 36.833476 -115.568414 194 13053ft 349kts
19-Mar-19 19:09 36.832774 -115.653221 332 11745ft 326kts
19-Mar-19 19:10 36.895355 -115.624336 82 11610ft 323kts
19-Mar-19 19:11 36.909427 -115.510011 132 7997ft 372kts
19-Mar-19 19:12 36.835027 -115.490359 239 6301ft 271kts
19-Mar-19 19:13 36.836855 -115.574171 321 7830ft 283kts
19-Mar-19 19:14 36.872940 -115.537979 96 8170ft 317kts
19-Mar-19 19:15 36.796300 -115.516587 182 7953ft 320kts
19-Mar-19 19:16 36.767139 -115.468931 11 8872ft 307kts
19-Mar-19 19:17 36.854737 -115.459072 40 8604ft 318kts
19-Mar-19 19:18 36.857721 -115.361630 34 9152ft 299kts
19-Mar-19 19:19 36.880199 -115.422319 245 9671ft 309kts
19-Mar-19 19:20 36.866487 -115.528753 279 9612ft 321kts
19-Mar-19 19:21 36.914769 -115.532237 108 9774ft 318kts
19-Mar-19 19:22 36.847677 -115.466031 202 9714ft 313kts
19-Mar-19 19:23 36.826873 -115.566829 294 9915ft 320kts
19-Mar-19 19:24 36.868510 -115.523527 92 9509ft 324kts
19-Mar-19 19:25 36.825136 -115.441478 170 9259ft 331kts
19-Mar-19 19:26 36.737001 -115.448869 232 9719ft 312kts
19-Mar-19 19:27 36.811423 -115.478067 3 7051ft 349kts
19-Mar-19 19:28 36.898065 -115.481938 10 6042ft 284kts
19-Mar-19 19:29 36.881121 -115.457770 202 4944ft 344kts
19-Mar-19 19:30 36.860070 -115.456237 281 4416ft 327kts
19-Mar-19 19:31 36.825056 -115.533556 231 7905ft 264kts
19-Mar-19 19:32 36.763365 -115.597967 210 8861ft 314kts
19-Mar-19 19:33 36.690857 -115.633044 157 8867ft 265kts
19-Mar-19 19:34 36.647754 -115.556608 93 8997ft 309kts
19-Mar-19 19:35 36.709719 -115.495944 4 9494ft 326kts
19-Mar-19 19:36 36.801030 -115.480504 8 9032ft 354kts
19-Mar-19 19:37 36.854436 -115.535113 244 9237ft 297kts
19-Mar-19 19:38 36.811748 -115.616135 224 11456ft 251kts
19-Mar-19 19:39 36.749383 -115.658979 195 11475ft 253kts
19-Mar-19 19:40 36.678238 -115.632451 125 11464ft 307kts
19-Mar-19 19:41 36.678895 -115.534478 46 11463ft 283kts
19-Mar-19 19:42 36.746105 -115.524222 319 11465ft 258kts
19-Mar-19 19:43 36.733932 -115.591563 204 11433ft 254kts
19-Mar-19 19:44 36.684139 -115.652185 259 13703ft 272kts
19-Mar-19 19:45 36.636539 -115.719148 181 15682ft 291kts
19-Mar-19 19:46 36.579991 -115.656869 92 15566ft 293kts
19-Mar-19 19:47 36.575349 -115.554803 119 15341ft 266kts
19-Mar-19 19:48 36.524551 -115.484819 132 12808ft 263kts
19-Mar-19 19:49 36.478928 -115.426175 149 12121ft 225kts
19-Mar-19 19:50 36.423375 -115.385164 144 9666ft 231kts
19-Mar-19 19:51 36.373586 -115.337543 139 7522ft 233kts
19-Mar-19 19:52 36.335346 -115.284654 122 7163ft 194kts
19-Mar-19 19:53 36.310320 -115.226451 111 6615ft 194kts
19-Mar-19 19:54 36.288518 -115.164607 110 5183ft 194kts
19-Mar-19 19:55 36.267148 -115.106598 155 4665ft 180kts
19-Mar-19 19:56 36.217919 -115.100448 158 3810ft 162kts
19-Mar-19 19:57 36.213090 -115.061428 41 2518ft 152kts
19-Mar-19 19:58 36.239038 -115.033527 40 1857ft 47kts
19-Mar-19 19:59 36.245501 -115.027596 281 1862ft 9kts
19-Mar-19 20:00 36.245586 -115.030663 271 1865ft 14kts
19-Mar-19 20:01 36.246422 -115.033082 358 1866ft 0kts
19-Mar-19 20:02 36.246422 -115.033082 358 1866ft 0kts

Navigation Log

Ident Type
Flight plan parsing failed, navigation log unavailable